Time;durP1;ratioP1;P1;durP2;ratioP2;P2;SDS_P1;SDS_P2;PMS_P1;PMS_P2;Temp;Humidity;BMP_temperature;BMP_pressure;BME280_temperature;BME280_humidity;BME280_pressure;Samples;Min_cycle;Max_cycle;Signal;HPM_P1;HPM_P2
2021/04/19 00:00:51;;;;;;;12.88;6.80;;;3.00;68.10;;;;;;5029936;28;20033;-78
2021/04/19 00:03:17;;;;;;;12.93;7.00;;;3.00;68.60;;;;;;5022129;28;20028;-78
2021/04/19 00:05:43;;;;;;;12.82;6.57;;;3.00;68.40;;;;;;5023788;28;20025;-78
2021/04/19 00:08:08;;;;;;;11.80;6.72;;;3.00;68.50;;;;;;5022633;28;20546;-78
2021/04/19 00:10:34;;;;;;;13.15;7.25;;;3.00;68.60;;;;;;5024200;28;20021;-78
2021/04/19 00:13:00;;;;;;;14.57;6.90;;;3.00;68.10;;;;;;5025263;28;20084;-78
2021/04/19 00:15:28;;;;;;;12.20;6.40;;;3.00;68.50;;;;;;5026079;28;20422;-78
2021/04/19 00:17:55;;;;;;;11.25;6.68;;;3.00;68.80;;;;;;5025295;28;20026;-77
2021/04/19 00:20:20;;;;;;;11.15;6.68;;;2.90;69.30;;;;;;5026418;28;20038;-79
2021/04/19 00:22:46;;;;;;;11.43;6.28;;;2.90;69.30;;;;;;5030483;28;20067;-78
2021/04/19 00:25:13;;;;;;;11.45;6.40;;;2.90;69.30;;;;;;5032406;28;20118;-77
2021/04/19 00:27:39;;;;;;;14.05;6.55;;;2.90;70.00;;;;;;5039308;28;20021;-78
2021/04/19 00:30:07;;;;;;;11.43;6.57;;;2.90;69.30;;;;;;5023188;28;20096;-78
2021/04/19 00:32:32;;;;;;;11.13;7.10;;;2.90;69.40;;;;;;5020172;28;20044;-76
2021/04/19 00:34:58;;;;;;;10.93;6.60;;;3.00;68.50;;;;;;5023659;28;20567;-78
2021/04/19 00:37:24;;;;;;;11.00;6.15;;;2.90;68.70;;;;;;5025418;28;20191;-77
2021/04/19 00:39:49;;;;;;;10.32;5.90;;;2.90;68.60;;;;;;5025322;28;20021;-77
2021/04/19 00:42:16;;;;;;;15.20;7.65;;;2.90;68.70;;;;;;5028450;28;20097;-78
2021/04/19 00:44:44;;;;;;;11.13;6.20;;;2.80;69.30;;;;;;5025093;28;20037;-78
2021/04/19 00:47:11;;;;;;;13.07;7.05;;;2.80;69.20;;;;;;5024219;28;20021;-78
2021/04/19 00:49:37;;;;;;;14.25;6.85;;;2.80;69.20;;;;;;5026990;28;20056;-78
2021/04/19 00:52:03;;;;;;;11.77;7.10;;;2.80;69.90;;;;;;5032061;28;20021;-78
2021/04/19 00:54:30;;;;;;;14.10;7.03;;;2.80;69.80;;;;;;5022401;28;20083;-78
2021/04/19 00:56:56;;;;;;;15.70;7.20;;;2.80;70.00;;;;;;5041474;28;20039;-79
2021/04/19 00:59:22;;;;;;;11.77;7.13;;;2.80;69.90;;;;;;5023104;28;20056;-79
2021/04/19 01:01:48;;;;;;;11.68;7.18;;;2.80;70.20;;;;;;5024009;28;20526;-78
2021/04/19 01:04:14;;;;;;;14.48;7.43;;;2.80;70.30;;;;;;5017439;28;20163;-78
2021/04/19 01:06:40;;;;;;;11.85;7.18;;;2.70;70.80;;;;;;5023334;28;20087;-78
2021/04/19 01:09:07;;;;;;;12.75;7.13;;;2.80;70.80;;;;;;5020633;28;20104;-79
2021/04/19 01:11:33;;;;;;;11.27;6.78;;;2.80;71.40;;;;;;5023528;28;20029;-77
2021/04/19 01:13:59;;;;;;;14.68;7.78;;;2.80;70.90;;;;;;5019662;28;20018;-78
2021/04/19 01:16:24;;;;;;;12.90;6.93;;;2.90;70.80;;;;;;5020433;28;20090;-78
2021/04/19 01:18:53;;;;;;;11.55;7.65;;;2.80;70.50;;;;;;5020148;28;20596;-78
2021/04/19 01:21:19;;;;;;;15.15;7.40;;;2.90;70.70;;;;;;5026138;28;20092;-78
2021/04/19 01:23:45;;;;;;;16.30;8.10;;;2.90;70.80;;;;;;5027754;28;20151;-79
2021/04/19 01:26:10;;;;;;;14.13;7.65;;;2.90;70.70;;;;;;5029183;28;20480;-77
2021/04/19 01:28:36;;;;;;;15.20;7.80;;;2.90;71.00;;;;;;5036155;28;20036;-78
2021/04/19 01:31:02;;;;;;;11.52;6.80;;;3.00;71.10;;;;;;5033729;28;20038;-78
2021/04/19 01:33:28;;;;;;;12.52;6.40;;;3.00;71.30;;;;;;5028529;28;20060;-78
2021/04/19 01:35:53;;;;;;;13.90;7.45;;;3.00;71.20;;;;;;5033330;28;20036;-79
2021/04/19 01:38:22;;;;;;;14.15;6.80;;;3.00;70.90;;;;;;5027459;28;20626;-79
2021/04/19 01:40:49;;;;;;;9.70;6.03;;;2.90;70.70;;;;;;5023443;28;20116;-79
2021/04/19 01:43:16;;;;;;;13.77;6.63;;;3.00;70.50;;;;;;5024587;28;20045;-80
2021/04/19 01:45:42;;;;;;;15.00;7.28;;;3.00;71.50;;;;;;5023611;28;20045;-76
2021/04/19 01:48:08;;;;;;;14.77;7.38;;;3.00;70.60;;;;;;5024889;28;20030;-79
2021/04/19 01:50:34;;;;;;;14.18;7.93;;;3.00;70.60;;;;;;5021921;28;20033;-78
2021/04/19 01:53:00;;;;;;;10.40;6.40;;;3.00;70.50;;;;;;5026616;28;20038;-78
2021/04/19 01:55:29;;;;;;;12.40;7.20;;;3.00;70.70;;;;;;5027257;28;20022;-78
2021/04/19 01:58:01;;;;;;;12.77;7.47;;;3.00;71.00;;;;;;5026378;28;20040;-78
2021/04/19 02:00:29;;;;;;;14.02;7.63;;;3.00;71.10;;;;;;5023502;28;20033;-77
2021/04/19 02:03:10;;;;;;;13.32;7.60;;;3.00;71.50;;;;;;5020751;28;20097;-77
2021/04/19 02:06:05;;;;;;;11.57;7.68;;;3.00;71.30;;;;;;5019422;28;20018;-78
2021/04/19 02:09:01;;;;;;;14.13;7.60;;;3.00;71.10;;;;;;5019901;28;20129;-77
2021/04/19 02:11:26;;;;;;;11.32;7.15;;;3.00;71.80;;;;;;5029318;28;20033;-79
2021/04/19 02:14:12;;;;;;;14.98;8.32;;;3.00;71.60;;;;;;5033089;28;20094;-77
2021/04/19 02:16:44;;;;;;;13.13;7.82;;;3.00;71.80;;;;;;5025723;28;20030;-78
2021/04/19 02:19:21;;;;;;;13.40;7.03;;;3.00;71.50;;;;;;5016457;28;20507;-78
2021/04/19 02:22:01;;;;;;;13.80;7.30;;;3.00;71.60;;;;;;5027144;28;20675;-78
2021/04/19 02:24:31;;;;;;;12.15;7.60;;;3.00;72.00;;;;;;5021987;28;20030;-78
2021/04/19 02:26:59;;;;;;;11.05;6.75;;;3.00;71.70;;;;;;5021472;28;20167;-78
2021/04/19 02:29:41;;;;;;;16.23;8.27;;;3.10;71.70;;;;;;5013051;28;20203;-78
2021/04/19 02:32:12;;;;;;;13.23;8.10;;;3.10;71.50;;;;;;5016307;28;20532;-79
2021/04/19 02:34:39;;;;;;;11.68;7.28;;;3.10;71.70;;;;;;5013584;28;20105;-79
2021/04/19 02:37:06;;;;;;;10.80;7.32;;;3.10;72.10;;;;;;5018011;28;20029;-78
2021/04/19 02:39:36;;;;;;;12.25;6.53;;;3.10;71.90;;;;;;5030984;28;20351;-77
2021/04/19 02:42:03;;;;;;;14.68;7.72;;;3.10;72.00;;;;;;5020540;28;20069;-78
2021/04/19 02:44:30;;;;;;;13.75;7.47;;;3.10;71.70;;;;;;5018962;28;20747;-78
2021/04/19 02:46:58;;;;;;;13.50;7.38;;;3.10;71.80;;;;;;5014409;28;20044;-77
2021/04/19 02:49:29;;;;;;;10.85;8.25;;;3.10;71.80;;;;;;5023448;28;20095;-78
2021/04/19 02:51:57;;;;;;;13.55;8.07;;;3.10;71.50;;;;;;5027986;28;20032;-77
2021/04/19 02:54:23;;;;;;;16.17;7.88;;;3.20;71.50;;;;;;5028591;28;20034;-77
2021/04/19 02:56:52;;;;;;;13.73;7.90;;;3.20;71.10;;;;;;5020927;28;20033;-78
2021/04/19 02:59:20;;;;;;;13.38;8.00;;;3.10;71.30;;;;;;5027404;28;20041;-78
2021/04/19 03:01:48;;;;;;;14.25;7.93;;;3.10;71.50;;;;;;5018164;28;20073;-77
2021/04/19 03:04:21;;;;;;;16.45;7.63;;;3.20;71.70;;;;;;5016288;28;20037;-78
2021/04/19 03:06:53;;;;;;;12.52;7.78;;;3.10;71.60;;;;;;5015702;28;20038;-78
2021/04/19 03:09:20;;;;;;;15.85;8.02;;;3.10;71.50;;;;;;5022147;28;20052;-79
2021/04/19 03:11:53;;;;;;;14.20;8.35;;;3.10;71.50;;;;;;5014829;28;20022;-78
2021/04/19 03:14:23;;;;;;;15.48;7.97;;;3.10;71.60;;;;;;5017734;28;20124;-78
2021/04/19 03:16:57;;;;;;;13.15;8.18;;;3.20;71.50;;;;;;5018697;28;20045;-78
2021/04/19 03:19:27;;;;;;;14.52;8.73;;;3.20;71.80;;;;;;5013505;28;20469;-79
2021/04/19 03:21:53;;;;;;;12.05;7.15;;;3.20;71.50;;;;;;5012336;28;20033;-77
2021/04/19 03:24:21;;;;;;;11.60;7.75;;;3.10;71.50;;;;;;5012834;28;20036;-77
2021/04/19 03:26:48;;;;;;;15.90;8.18;;;3.10;71.40;;;;;;5022962;28;20489;-78
2021/04/19 03:29:15;;;;;;;13.63;8.15;;;3.10;71.70;;;;;;5028099;28;20022;-78
2021/04/19 03:31:46;;;;;;;14.45;8.25;;;3.20;71.60;;;;;;5021243;28;20041;-78
2021/04/19 03:34:15;;;;;;;13.15;7.75;;;3.10;71.40;;;;;;5021635;28;20061;-78
2021/04/19 03:36:43;;;;;;;14.60;7.93;;;3.10;71.50;;;;;;5020185;28;20033;-78
2021/04/19 03:39:10;;;;;;;13.20;7.75;;;3.10;71.30;;;;;;5022188;28;20097;-77
2021/04/19 03:41:40;;;;;;;12.40;7.22;;;3.10;71.50;;;;;;5021618;28;20271;-78
2021/04/19 03:44:08;;;;;;;13.88;8.40;;;3.10;71.60;;;;;;5021428;28;20034;-77
2021/04/19 03:46:37;;;;;;;15.85;8.55;;;3.10;71.30;;;;;;5030006;28;20031;-77
2021/04/19 03:49:05;;;;;;;;;;;3.10;71.40;;;;;;5031935;28;20041;-78
2021/04/19 03:51:32;;;;;;;14.90;8.40;;;3.10;71.70;;;;;;5030332;28;19913;-78
2021/04/19 03:54:03;;;;;;;13.75;7.47;;;3.10;72.10;;;;;;5020792;28;20025;-79
2021/04/19 03:56:33;;;;;;;13.98;7.85;;;3.10;72.10;;;;;;5022375;28;20033;-78
2021/04/19 03:59:03;;;;;;;15.30;7.43;;;3.10;72.20;;;;;;5024515;28;20535;-79
2021/04/19 04:01:30;;;;;;;12.57;8.00;;;3.10;72.00;;;;;;5035885;28;20035;-78
2021/04/19 04:03:57;;;;;;;14.93;8.20;;;3.10;72.20;;;;;;5028214;28;20025;-77
2021/04/19 04:06:25;;;;;;;18.33;8.95;;;3.10;71.90;;;;;;5016225;28;20086;-78
2021/04/19 04:08:52;;;;;;;15.27;8.23;;;3.10;72.00;;;;;;5018210;28;20038;-79
2021/04/19 04:11:18;;;;;;;17.80;9.02;;;3.10;72.20;;;;;;5018426;28;20033;-79
2021/04/19 04:13:44;;;;;;;16.45;9.13;;;3.10;72.00;;;;;;5017229;28;20302;-79
2021/04/19 04:16:10;;;;;;;16.15;7.85;;;3.10;72.70;;;;;;5016125;28;20029;-79
2021/04/19 04:18:36;;;;;;;14.68;7.85;;;3.10;71.90;;;;;;5024279;28;20018;-80
2021/04/19 04:21:02;;;;;;;13.25;7.72;;;3.10;72.00;;;;;;5016673;28;20082;-78
2021/04/19 04:23:28;;;;;;;15.00;8.20;;;3.00;71.70;;;;;;5018684;28;20029;-79
2021/04/19 04:25:53;;;;;;;15.85;8.43;;;3.00;71.80;;;;;;5019297;28;20177;-78
2021/04/19 04:28:19;;;;;;;12.95;6.93;;;3.00;71.70;;;;;;5022079;28;20025;-78
2021/04/19 04:30:45;;;;;;;13.68;7.78;;;3.00;71.70;;;;;;5023982;28;20029;-78
2021/04/19 04:33:10;;;;;;;16.65;7.55;;;3.00;71.60;;;;;;5024792;28;20037;-79
2021/04/19 04:35:38;;;;;;;16.75;7.22;;;2.90;71.50;;;;;;5023200;28;20179;-78
2021/04/19 04:38:04;;;;;;;10.35;6.78;;;2.90;71.70;;;;;;5024926;28;20026;-79
2021/04/19 04:40:31;;;;;;;13.32;6.93;;;2.90;71.90;;;;;;5025492;28;20098;-79
2021/04/19 04:43:02;;;;;;;16.35;7.32;;;2.90;71.60;;;;;;5029876;28;20077;-79
2021/04/19 04:45:29;;;;;;;13.93;8.52;;;2.90;71.90;;;;;;5025785;28;20221;-79
2021/04/19 04:47:57;;;;;;;9.38;6.68;;;2.80;71.90;;;;;;5023482;28;20025;-79
2021/04/19 04:50:29;;;;;;;15.73;8.98;;;2.80;71.80;;;;;;5022548;28;20022;-80
2021/04/19 04:53:02;;;;;;;13.45;7.95;;;2.80;72.20;;;;;;5028690;28;20052;-79
2021/04/19 04:55:31;;;;;;;10.05;6.75;;;2.80;72.30;;;;;;5014750;28;20040;-80
2021/04/19 04:57:58;;;;;;;11.15;7.57;;;2.80;72.00;;;;;;5023533;28;20052;-78
2021/04/19 05:00:24;;;;;;;14.55;8.02;;;2.80;71.80;;;;;;5021390;28;20049;-79
2021/04/19 05:02:52;;;;;;;13.73;8.02;;;2.80;72.00;;;;;;5020423;28;20495;-79
2021/04/19 05:05:18;;;;;;;11.77;7.70;;;2.80;72.10;;;;;;5022002;28;20030;-78
2021/04/19 05:07:45;;;;;;;14.00;7.95;;;2.80;72.30;;;;;;5021631;28;20040;-78
2021/04/19 05:10:12;;;;;;;14.02;8.40;;;2.80;72.60;;;;;;5025271;28;20031;-80
2021/04/19 05:12:40;;;;;;;14.98;7.95;;;2.80;72.80;;;;;;5022528;28;20073;-77
2021/04/19 05:15:15;;;;;;;15.02;9.02;;;2.80;73.00;;;;;;5026037;28;20089;-78
2021/04/19 05:17:42;;;;;;;14.38;8.60;;;2.90;73.30;;;;;;5035595;28;20037;-79
2021/04/19 05:20:08;;;;;;;16.25;8.15;;;2.90;73.40;;;;;;5023645;28;20037;-78
2021/04/19 05:22:35;;;;;;;19.23;10.18;;;2.90;72.80;;;;;;5025160;28;20034;-77
2021/04/19 05:25:03;;;;;;;17.90;8.45;;;2.90;73.00;;;;;;5024363;28;20105;-78
2021/04/19 05:27:29;;;;;;;13.43;8.93;;;2.90;73.30;;;;;;5043633;28;20049;-77
2021/04/19 05:29:55;;;;;;;17.40;9.55;;;2.90;73.10;;;;;;5025797;28;20033;-77
2021/04/19 05:32:22;;;;;;;24.17;9.80;;;2.90;73.70;;;;;;5034921;28;20037;-78
2021/04/19 05:34:49;;;;;;;18.58;9.15;;;2.90;74.70;;;;;;5033206;28;20037;-77
2021/04/19 05:37:17;;;;;;;15.43;8.95;;;2.90;75.00;;;;;;5038367;28;20025;-78
2021/04/19 05:39:43;;;;;;;19.52;10.45;;;2.90;74.90;;;;;;5028290;28;20035;-77
2021/04/19 05:42:11;;;;;;;16.63;8.07;;;3.00;74.80;;;;;;5029593;28;20087;-79
2021/04/19 05:44:37;;;;;;;18.00;9.75;;;3.00;75.20;;;;;;5023877;28;20034;-77
2021/04/19 05:47:05;;;;;;;18.42;8.95;;;3.00;75.10;;;;;;5025104;28;20033;-78
2021/04/19 05:49:31;;;;;;;15.77;9.32;;;3.10;74.90;;;;;;5027925;28;20033;-78
2021/04/19 05:52:00;;;;;;;15.77;9.43;;;3.10;74.70;;;;;;5026245;28;20025;-80
2021/04/19 05:54:26;;;;;;;26.25;9.63;;;3.10;74.80;;;;;;5027018;28;20035;-79
2021/04/19 05:57:01;;;;;;;18.92;9.73;;;3.20;75.20;;;;;;5025910;28;20033;-79
2021/04/19 05:59:39;;;;;;;20.63;9.40;;;3.20;75.30;;;;;;5026590;28;20285;-79
2021/04/19 06:02:08;;;;;;;19.58;11.07;;;3.30;75.40;;;;;;5022895;28;20052;-78
2021/04/19 06:04:54;;;;;;;19.17;9.80;;;3.30;75.00;;;;;;5020554;28;20381;-77
2021/04/19 06:07:27;;;;;;;18.30;9.30;;;3.30;75.50;;;;;;5028994;28;20040;-79
2021/04/19 06:09:58;;;;;;;14.13;8.98;;;3.40;75.40;;;;;;5025731;28;20264;-79
2021/04/19 06:12:29;;;;;;;14.77;9.23;;;3.40;75.40;;;;;;5018489;28;20057;-78
2021/04/19 06:14:57;;;;;;;22.58;10.18;;;3.50;76.10;;;;;;5020751;28;20022;-78
2021/04/19 06:17:23;;;;;;;20.13;10.73;;;3.50;75.40;;;;;;5031678;28;20036;-77
2021/04/19 06:19:50;;;;;;;19.60;10.55;;;3.60;76.20;;;;;;5020676;28;20061;-78
2021/04/19 06:22:17;;;;;;;19.42;10.65;;;3.50;76.50;;;;;;5015612;28;20029;-78
2021/04/19 06:24:50;;;;;;;19.60;10.27;;;3.60;76.30;;;;;;5020927;28;20138;-79
2021/04/19 06:27:22;;;;;;;21.73;10.63;;;3.60;76.60;;;;;;5028818;28;20374;-79
2021/04/19 06:29:48;;;;;;;20.73;11.00;;;3.60;77.30;;;;;;5032164;28;20025;-79
2021/04/19 06:32:15;;;;;;;21.33;11.20;;;3.70;77.20;;;;;;5026880;28;20400;-79
2021/04/19 06:34:41;;;;;;;22.98;11.05;;;3.70;76.50;;;;;;5022947;28;20030;-78
2021/04/19 06:37:07;;;;;;;17.42;10.35;;;3.70;76.70;;;;;;5032588;28;20025;-79
2021/04/19 06:39:34;;;;;;;28.20;13.27;;;3.90;77.10;;;;;;5026339;28;20064;-77
2021/04/19 06:42:02;;;;;;;21.58;10.55;;;3.90;77.10;;;;;;5030127;28;20024;-79
2021/04/19 06:44:29;;;;;;;22.02;11.70;;;4.00;77.20;;;;;;5028715;28;20137;-79
2021/04/19 06:46:55;;;;;;;21.77;11.25;;;4.00;76.70;;;;;;5026800;28;20270;-78
2021/04/19 06:49:21;;;;;;;22.88;10.63;;;4.10;76.50;;;;;;5022703;28;20025;-79
2021/04/19 06:51:48;;;;;;;22.65;10.95;;;4.10;77.00;;;;;;5025503;28;20076;-79
2021/04/19 06:54:13;;;;;;;19.77;11.48;;;4.10;77.20;;;;;;5025566;28;20025;-78
2021/04/19 06:56:43;;;;;;;20.40;11.30;;;4.20;77.10;;;;;;5030398;28;20034;-78
2021/04/19 06:59:10;;;;;;;19.33;12.13;;;4.30;77.60;;;;;;5023977;28;20034;-78
2021/04/19 07:01:37;;;;;;;21.25;11.65;;;4.40;77.00;;;;;;5044458;28;20033;-78
2021/04/19 07:04:07;;;;;;;23.42;10.77;;;4.40;76.30;;;;;;5034173;28;20068;-79
2021/04/19 07:06:35;;;;;;;19.77;10.63;;;4.50;76.80;;;;;;5032844;28;20320;-77
2021/04/19 07:09:32;;;;;;;24.52;11.68;;;4.50;76.10;;;;;;5025531;28;20024;-80
2021/04/19 07:12:03;;;;;;;20.13;11.45;;;4.60;76.40;;;;;;5024597;28;20026;-79
2021/04/19 07:14:31;;;;;;;19.40;11.80;;;4.70;76.00;;;;;;5026332;28;20021;-79
2021/04/19 07:16:57;;;;;;;18.60;10.13;;;4.70;76.30;;;;;;5029448;28;20037;-78
2021/04/19 07:19:23;;;;;;;24.55;12.45;;;4.80;75.90;;;;;;5022874;28;20504;-78
2021/04/19 07:21:50;;;;;;;25.65;12.35;;;4.90;75.80;;;;;;5027164;28;20195;-80
2021/04/19 07:24:16;;;;;;;26.27;11.95;;;4.90;75.80;;;;;;5027907;28;20030;-77
2021/04/19 07:26:43;;;;;;;22.88;12.18;;;5.00;76.20;;;;;;5027178;28;20021;-78
2021/04/19 07:29:09;;;;;;;26.15;12.52;;;5.00;76.20;;;;;;5025329;28;20038;-78
2021/04/19 07:31:52;;;;;;;27.60;12.45;;;5.10;77.10;;;;;;5036664;28;20408;-78
2021/04/19 07:34:23;;;;;;;25.95;13.15;;;5.20;76.80;;;;;;5033430;28;20087;-78
2021/04/19 07:36:59;;;;;;;24.60;11.95;;;5.20;76.00;;;;;;5036189;28;20036;-79
2021/04/19 07:39:27;;;;;;;25.52;11.05;;;5.40;76.10;;;;;;5032938;28;20079;-78
2021/04/19 07:41:55;;;;;;;23.60;12.55;;;5.40;76.00;;;;;;5034331;28;20025;-78
2021/04/19 07:44:34;;;;;;;20.58;10.90;;;5.40;75.70;;;;;;5032462;28;20032;-78
2021/04/19 07:47:31;;;;;;;23.60;12.07;;;5.50;75.50;;;;;;5036162;28;20204;-79
2021/04/19 07:50:03;;;;;;;22.70;11.55;;;5.60;76.60;;;;;;5027654;28;20045;-79
2021/04/19 07:52:30;;;;;;;23.95;11.38;;;5.70;76.20;;;;;;5036260;28;20034;-79
2021/04/19 07:55:22;;;;;;;23.52;12.10;;;5.80;76.00;;;;;;5026409;28;20029;-79
2021/04/19 07:57:49;;;;;;;23.60;12.05;;;5.90;76.30;;;;;;5030968;28;20063;-78
2021/04/19 08:00:44;;;;;;;21.50;12.15;;;5.90;76.40;;;;;;5033394;28;20032;-79
2021/04/19 08:03:20;;;;;;;20.55;12.50;;;6.00;75.20;;;;;;5009621;28;21629;-78
2021/04/19 08:05:52;;;;;;;23.98;11.48;;;6.10;75.10;;;;;;5011542;28;20280;-79
2021/04/19 08:08:34;;;;;;;22.02;11.10;;;6.20;75.00;;;;;;5014300;28;20571;-79
2021/04/19 08:11:08;;;;;;;25.63;12.27;;;6.20;74.80;;;;;;5019689;28;20068;-80
2021/04/19 08:13:33;;;;;;;21.15;11.63;;;6.30;75.50;;;;;;5014805;28;20090;-78
2021/04/19 08:16:15;;;;;;;22.80;11.25;;;6.30;74.90;;;;;;5014931;28;20081;-79
2021/04/19 08:18:41;;;;;;;22.45;12.48;;;6.40;75.00;;;;;;5010321;28;20069;-78
2021/04/19 08:21:07;;;;;;;23.13;11.02;;;6.40;74.50;;;;;;5015083;28;20033;-78
2021/04/19 08:23:41;;;;;;;17.17;10.10;;;6.50;74.10;;;;;;5014726;28;20041;-77
2021/04/19 08:26:07;;;;;;;22.95;11.32;;;6.50;75.30;;;;;;5016486;28;20030;-80
2021/04/19 08:28:45;;;;;;;22.83;11.60;;;6.60;74.30;;;;;;5010208;28;20033;-77
2021/04/19 08:31:11;;;;;;;19.67;9.88;;;6.70;74.50;;;;;;5025455;28;20526;-77
2021/04/19 08:33:38;;;;;;;19.70;11.35;;;6.80;74.20;;;;;;5031047;28;20017;-78
2021/04/19 08:36:09;;;;;;;19.05;10.73;;;6.80;74.00;;;;;;5031977;28;20017;-79
2021/04/19 08:38:35;;;;;;;21.80;10.10;;;6.90;74.20;;;;;;5028031;28;20033;-78
2021/04/19 08:41:01;;;;;;;19.88;9.85;;;7.00;74.70;;;;;;5032384;28;20033;-79
2021/04/19 08:43:29;;;;;;;16.58;9.77;;;7.10;73.80;;;;;;5037937;28;20025;-79
2021/04/19 08:45:56;;;;;;;21.95;9.65;;;7.20;73.30;;;;;;5036527;28;20642;-77
2021/04/19 08:48:22;;;;;;;19.15;9.73;;;7.30;72.80;;;;;;5025982;28;20038;-77
2021/04/19 08:50:51;;;;;;;19.75;9.65;;;7.30;72.60;;;;;;5025981;28;20023;-78
2021/04/19 08:53:18;;;;;;;17.83;9.80;;;7.40;72.20;;;;;;5013617;28;20104;-79
2021/04/19 08:55:46;;;;;;;20.25;10.07;;;7.50;72.40;;;;;;5011507;28;20056;-77
2021/04/19 08:58:17;;;;;;;19.23;10.23;;;7.50;72.20;;;;;;5022900;28;20049;-79
2021/04/19 09:00:48;;;;;;;20.20;9.30;;;7.60;71.30;;;;;;5014832;28;20072;-79
2021/04/19 09:03:18;;;;;;;18.80;9.20;;;7.60;70.80;;;;;;5035095;28;20033;-79
2021/04/19 09:05:45;;;;;;;21.45;9.32;;;7.70;70.30;;;;;;5035497;28;20036;-78
2021/04/19 09:08:15;;;;;;;15.27;8.35;;;7.80;70.00;;;;;;5036888;28;20102;-79
2021/04/19 09:10:50;;;;;;;17.80;9.10;;;7.90;70.50;;;;;;5036387;28;20459;-79
2021/04/19 09:13:34;;;;;;;13.75;7.65;;;8.00;70.00;;;;;;5035199;28;20033;-79
2021/04/19 09:16:24;;;;;;;17.25;8.40;;;8.00;69.60;;;;;;5034132;28;20045;-80
2021/04/19 09:18:52;;;;;;;14.85;7.38;;;8.10;68.10;;;;;;5046934;28;20048;-78
2021/04/19 09:21:53;;;;;;;;;;;8.10;68.00;;;;;;5029330;28;20495;-78
2021/04/19 09:24:22;;;;;;;14.32;7.40;;;8.20;67.30;;;;;;4972432;28;19929;-79
2021/04/19 09:26:50;;;;;;;13.07;7.45;;;8.20;67.30;;;;;;5026138;28;20037;-78
2021/04/19 09:29:25;;;;;;;;;;;8.30;67.40;;;;;;5033317;28;20064;-78
2021/04/19 09:31:58;;;;;;;16.25;7.82;;;8.30;67.70;;;;;;5033439;28;19924;-77
2021/04/19 09:34:47;;;;;;;9.65;6.28;;;8.40;67.40;;;;;;5033747;28;20014;-79
2021/04/19 09:37:16;;;;;;;11.00;6.65;;;8.50;67.20;;;;;;5034191;28;20033;-78
2021/04/19 09:39:53;;;;;;;13.38;6.00;;;8.60;67.30;;;;;;5029326;28;20025;-78
2021/04/19 09:42:53;;;;;;;14.00;6.22;;;8.60;66.60;;;;;;5028320;28;20033;-80
2021/04/19 09:45:42;;;;;;;13.85;6.45;;;8.80;66.20;;;;;;5029903;28;20017;-79
2021/04/19 09:48:27;;;;;;;;;;;8.80;65.40;;;;;;5027455;28;20033;-78
2021/04/19 09:51:30;;;;;;;12.68;6.55;;;8.90;64.90;;;;;;5034663;28;19905;-79
2021/04/19 09:53:59;;;;;;;13.93;6.90;;;9.00;65.70;;;;;;4974209;28;20033;-79
2021/04/19 09:56:49;;;;;;;12.90;7.20;;;9.10;65.50;;;;;;5032994;28;20133;-79
2021/04/19 09:59:20;;;;;;;11.93;6.80;;;9.20;64.80;;;;;;5031416;28;20619;-79
2021/04/19 10:01:48;;;;;;;12.55;6.47;;;9.20;64.00;;;;;;5038760;28;20061;-78
2021/04/19 10:04:14;;;;;;;11.38;6.20;;;9.20;64.00;;;;;;5031589;28;20120;-79
2021/04/19 10:06:44;;;;;;;11.50;6.22;;;9.30;64.20;;;;;;5038805;28;20033;-80
2021/04/19 10:09:14;;;;;;;14.15;7.10;;;9.30;65.30;;;;;;5031306;28;20022;-78
2021/04/19 10:11:43;;;;;;;14.20;6.75;;;9.40;64.90;;;;;;5036418;28;20098;-79
2021/04/19 10:14:11;;;;;;;12.45;5.90;;;9.40;64.50;;;;;;5034215;28;20026;-79
2021/04/19 10:16:42;;;;;;;12.25;7.07;;;9.40;63.30;;;;;;5028791;28;20018;-79
2021/04/19 10:19:08;;;;;;;11.48;6.55;;;9.40;63.30;;;;;;5037728;28;20063;-80
2021/04/19 10:21:34;;;;;;;11.45;5.78;;;9.40;63.30;;;;;;5032244;28;20034;-78
2021/04/19 10:24:00;;;;;;;15.73;6.22;;;9.40;64.00;;;;;;5037340;28;20029;-79
2021/04/19 10:26:44;;;;;;;12.38;6.28;;;9.40;65.00;;;;;;5039252;28;20044;-78
2021/04/19 10:29:10;;;;;;;13.20;5.97;;;9.50;64.30;;;;;;5039125;28;20017;-80
2021/04/19 10:31:36;;;;;;;10.45;6.53;;;9.60;63.70;;;;;;5034614;28;20041;-77
2021/04/19 10:34:11;;;;;;;11.30;5.95;;;9.60;63.70;;;;;;5036651;28;20056;-77
2021/04/19 10:36:47;;;;;;;11.13;6.18;;;9.60;64.20;;;;;;5034515;28;20748;-78
2021/04/19 10:39:20;;;;;;;11.82;6.60;;;9.60;63.30;;;;;;5037614;28;20053;-80
2021/04/19 10:41:51;;;;;;;15.43;6.97;;;9.50;63.20;;;;;;5034435;28;20129;-79
2021/04/19 10:44:25;;;;;;;13.68;7.03;;;9.50;63.30;;;;;;5029404;28;20024;-78
2021/04/19 10:46:51;;;;;;;11.55;7.13;;;9.60;63.40;;;;;;5037785;28;20034;-78
2021/04/19 10:49:24;;;;;;;11.68;6.72;;;9.60;63.70;;;;;;5035447;28;20112;-78
2021/04/19 10:51:59;;;;;;;10.63;6.78;;;9.60;63.90;;;;;;5033933;28;20293;-79
2021/04/19 10:54:37;;;;;;;13.85;8.95;;;9.70;64.30;;;;;;5039432;28;20027;-79
2021/04/19 10:57:07;;;;;;;13.88;7.00;;;9.70;63.90;;;;;;5037620;28;20026;-78
2021/04/19 10:59:33;;;;;;;11.55;6.55;;;9.70;63.80;;;;;;5037097;28;20260;-77
2021/04/19 11:02:04;;;;;;;14.32;7.05;;;9.80;63.30;;;;;;5045862;28;20044;-79
2021/04/19 11:04:32;;;;;;;11.27;6.68;;;9.80;63.10;;;;;;5039432;28;20064;-81
2021/04/19 11:07:29;;;;;;;12.13;6.60;;;9.80;62.60;;;;;;5046639;28;20029;-80
2021/04/19 11:10:16;;;;;;;15.07;7.07;;;9.80;62.50;;;;;;5040644;28;20542;-78
2021/04/19 11:13:00;;;;;;;10.43;5.80;;;9.80;62.30;;;;;;5043421;28;20025;-78
2021/04/19 11:15:38;;;;;;;10.45;6.32;;;9.80;62.60;;;;;;5035522;28;20045;-79
2021/04/19 11:18:18;;;;;;;9.98;5.75;;;9.90;63.80;;;;;;5039529;28;20056;-79
2021/04/19 11:20:45;;;;;;;8.60;5.70;;;10.00;63.30;;;;;;5037937;28;20030;-78
2021/04/19 11:23:20;;;;;;;9.98;6.25;;;10.10;62.60;;;;;;5038283;28;20017;-78
2021/04/19 11:25:47;;;;;;;10.73;5.97;;;10.10;61.30;;;;;;5035854;28;20029;-77
2021/04/19 11:28:33;;;;;;;10.25;5.80;;;10.20;61.40;;;;;;5048602;28;20021;-77
2021/04/19 11:31:15;;;;;;;11.95;6.47;;;10.20;60.80;;;;;;5035011;28;20120;-78
2021/04/19 11:33:42;;;;;;;13.10;6.97;;;10.30;61.90;;;;;;5036717;28;20426;-78
2021/04/19 11:36:09;;;;;;;11.40;6.35;;;10.30;62.10;;;;;;5037676;28;20028;-79
2021/04/19 11:38:37;;;;;;;10.90;5.63;;;10.40;62.00;;;;;;5035999;28;20029;-79
2021/04/19 11:41:08;;;;;;;12.73;6.28;;;10.40;61.60;;;;;;5035899;28;20030;-79
2021/04/19 11:43:35;;;;;;;12.90;6.53;;;10.50;61.40;;;;;;5036409;28;20036;-79
2021/04/19 11:46:02;;;;;;;10.85;5.63;;;10.50;61.30;;;;;;5034544;28;20041;-80
2021/04/19 11:48:29;;;;;;;10.75;5.50;;;10.50;60.50;;;;;;5034439;28;20037;-79
2021/04/19 11:50:56;;;;;;;10.05;5.80;;;10.50;60.20;;;;;;5033296;28;20029;-78
2021/04/19 11:53:24;;;;;;;14.60;7.03;;;10.50;60.00;;;;;;5033907;28;20032;-78
2021/04/19 11:55:51;;;;;;;11.03;7.17;;;10.60;61.70;;;;;;5035206;28;20554;-80
2021/04/19 11:58:16;;;;;;;10.90;6.50;;;10.70;62.60;;;;;;5030042;28;20288;-79
2021/04/19 12:00:42;;;;;;;12.25;7.20;;;10.80;61.20;;;;;;5038188;28;20032;-79
2021/04/19 12:03:08;;;;;;;15.45;7.82;;;10.90;63.50;;;;;;5037425;28;20021;-79
2021/04/19 12:05:34;;;;;;;14.43;8.02;;;11.00;63.10;;;;;;5034414;28;20029;-77
2021/04/19 12:08:00;;;;;;;14.07;8.05;;;11.00;61.40;;;;;;5028873;28;20033;-77
2021/04/19 12:10:26;;;;;;;12.00;7.38;;;11.00;60.80;;;;;;5034967;28;20033;-79
2021/04/19 12:12:52;;;;;;;11.00;6.90;;;11.10;62.30;;;;;;5035800;28;20087;-79
2021/04/19 12:15:18;;;;;;;12.75;6.72;;;11.10;60.40;;;;;;5023845;28;20033;-77
2021/04/19 12:17:43;;;;;;;11.20;6.40;;;11.10;60.30;;;;;;5022674;28;20037;-78
2021/04/19 12:20:09;;;;;;;10.63;6.65;;;11.10;60.70;;;;;;5029784;28;20049;-78
2021/04/19 12:22:35;;;;;;;12.07;6.10;;;11.10;60.00;;;;;;5045295;28;20028;-77
2021/04/19 12:25:01;;;;;;;13.52;6.78;;;11.10;59.50;;;;;;5033053;28;20025;-79
2021/04/19 12:27:26;;;;;;;11.57;6.45;;;11.10;59.50;;;;;;5027664;28;20040;-80
2021/04/19 12:29:52;;;;;;;12.93;6.35;;;11.10;58.20;;;;;;5029920;28;20025;-78
2021/04/19 12:32:19;;;;;;;15.57;6.50;;;11.10;58.20;;;;;;5026006;28;20037;-80
2021/04/19 12:34:44;;;;;;;11.32;6.35;;;11.10;58.60;;;;;;5030388;28;20060;-79
2021/04/19 12:37:10;;;;;;;8.55;5.63;;;11.00;58.60;;;;;;5023209;28;20057;-79
2021/04/19 12:39:35;;;;;;;9.70;5.90;;;11.00;59.10;;;;;;5028103;28;20033;-78
2021/04/19 12:42:02;;;;;;;13.00;6.10;;;11.00;58.70;;;;;;5022236;28;20904;-78
2021/04/19 12:44:28;;;;;;;12.55;5.95;;;11.10;58.20;;;;;;5029097;28;20508;-78
2021/04/19 12:46:54;;;;;;;10.40;6.10;;;11.10;59.00;;;;;;5030558;28;20531;-78
2021/04/19 12:49:21;;;;;;;12.13;6.72;;;11.20;59.40;;;;;;5030472;28;20037;-79
2021/04/19 12:51:47;;;;;;;10.93;6.28;;;11.20;59.10;;;;;;5031323;28;20032;-78
2021/04/19 12:54:14;;;;;;;10.50;6.00;;;11.30;59.30;;;;;;5025243;28;20029;-80
2021/04/19 12:56:39;;;;;;;12.23;6.45;;;11.30;59.50;;;;;;5030901;28;20025;-78
2021/04/19 12:59:05;;;;;;;12.32;7.03;;;11.30;59.60;;;;;;5024377;28;20041;-77